sensor_id;sensor_type;location;lat;lon;timestamp;pressure;altitude;pressure_sealevel;temperature;humidity
5455;BME280;2750;49.050;9.250;2023-11-18T00:03:36;99640.88;;;9.87;92.25
5455;BME280;2750;49.050;9.250;2023-11-18T00:08:38;99637.28;;;9.92;92.31
5455;BME280;2750;49.050;9.250;2023-11-18T00:13:41;99637.34;;;9.89;92.11
5455;BME280;2750;49.050;9.250;2023-11-18T00:18:43;99642.91;;;10.05;91.49
5455;BME280;2750;49.050;9.250;2023-11-18T00:23:44;99642.59;;;10.17;91.08
5455;BME280;2750;49.050;9.250;2023-11-18T00:28:47;99638.84;;;10.26;90.72
5455;BME280;2750;49.050;9.250;2023-11-18T00:33:49;99631.88;;;10.28;90.52
5455;BME280;2750;49.050;9.250;2023-11-18T00:38:51;99633.72;;;10.24;90.20
5455;BME280;2750;49.050;9.250;2023-11-18T00:43:54;99632.09;;;10.20;90.16
5455;BME280;2750;49.050;9.250;2023-11-18T00:48:56;99629.97;;;10.33;88.98
5455;BME280;2750;49.050;9.250;2023-11-18T00:53:59;99642.09;;;10.32;89.05
5455;BME280;2750;49.050;9.250;2023-11-18T00:59:03;99640.25;;;10.36;89.42
5455;BME280;2750;49.050;9.250;2023-11-18T01:04:06;99637.91;;;10.54;88.70
5455;BME280;2750;49.050;9.250;2023-11-18T01:09:09;99656.50;;;10.42;89.51
5455;BME280;2750;49.050;9.250;2023-11-18T01:14:12;99662.44;;;10.46;89.05
5455;BME280;2750;49.050;9.250;2023-11-18T01:19:13;99656.06;;;10.54;89.37
5455;BME280;2750;49.050;9.250;2023-11-18T01:24:15;99654.41;;;10.26;90.32
5455;BME280;2750;49.050;9.250;2023-11-18T01:29:18;99668.19;;;10.28;90.76
5455;BME280;2750;49.050;9.250;2023-11-18T01:34:21;99664.06;;;10.21;90.08
5455;BME280;2750;49.050;9.250;2023-11-18T01:39:23;99675.69;;;10.07;91.30
5455;BME280;2750;49.050;9.250;2023-11-18T01:44:26;99670.25;;;10.17;90.86
5455;BME280;2750;49.050;9.250;2023-11-18T01:49:29;99657.03;;;9.96;91.37
5455;BME280;2750;49.050;9.250;2023-11-18T01:54:31;99667.31;;;9.99;91.75
5455;BME280;2750;49.050;9.250;2023-11-18T01:59:34;99662.00;;;10.04;91.23
5455;BME280;2750;49.050;9.250;2023-11-18T02:04:35;99668.97;;;10.00;91.98
5455;BME280;2750;49.050;9.250;2023-11-18T02:09:37;99665.59;;;9.98;91.70
5455;BME280;2750;49.050;9.250;2023-11-18T02:14:40;99657.59;;;10.06;91.69
5455;BME280;2750;49.050;9.250;2023-11-18T02:19:42;99675.69;;;10.07;91.22
5455;BME280;2750;49.050;9.250;2023-11-18T02:24:44;99672.13;;;9.82;91.73
5455;BME280;2750;49.050;9.250;2023-11-18T02:29:48;99664.03;;;9.64;92.83
5455;BME280;2750;49.050;9.250;2023-11-18T02:34:58;99660.88;;;9.83;92.78
5455;BME280;2750;49.050;9.250;2023-11-18T02:40:04;99672.16;;;10.10;92.00
5455;BME280;2750;49.050;9.250;2023-11-18T02:45:12;99677.25;;;10.15;91.68
5455;BME280;2750;49.050;9.250;2023-11-18T02:50:16;99679.00;;;10.13;91.42
5455;BME280;2750;49.050;9.250;2023-11-18T02:55:19;99669.69;;;10.05;91.62
5455;BME280;2750;49.050;9.250;2023-11-18T03:00:24;99660.22;;;10.04;91.46
5455;BME280;2750;49.050;9.250;2023-11-18T03:05:25;99667.09;;;10.05;91.63
5455;BME280;2750;49.050;9.250;2023-11-18T03:10:27;99658.91;;;9.91;91.92
5455;BME280;2750;49.050;9.250;2023-11-18T03:15:31;99668.63;;;9.83;91.67
5455;BME280;2750;49.050;9.250;2023-11-18T03:20:33;99668.25;;;9.66;92.22
5455;BME280;2750;49.050;9.250;2023-11-18T03:25:35;99658.31;;;9.82;91.62
5455;BME280;2750;49.050;9.250;2023-11-18T03:30:39;99652.22;;;9.84;91.37
5455;BME280;2750;49.050;9.250;2023-11-18T03:35:42;99654.88;;;9.81;91.73
5455;BME280;2750;49.050;9.250;2023-11-18T03:40:43;99653.34;;;9.74;91.56
5455;BME280;2750;49.050;9.250;2023-11-18T03:45:48;99663.47;;;9.54;91.29
5455;BME280;2750;49.050;9.250;2023-11-18T03:50:50;99667.88;;;9.50;90.71
5455;BME280;2750;49.050;9.250;2023-11-18T03:55:51;99670.94;;;9.32;91.37
5455;BME280;2750;49.050;9.250;2023-11-18T04:00:54;99674.06;;;9.12;91.50
5455;BME280;2750;49.050;9.250;2023-11-18T04:05:56;99675.44;;;9.26;90.24
5455;BME280;2750;49.050;9.250;2023-11-18T04:10:58;99656.78;;;9.13;89.90
5455;BME280;2750;49.050;9.250;2023-11-18T04:16:01;99666.28;;;9.12;89.95
5455;BME280;2750;49.050;9.250;2023-11-18T04:21:04;99672.38;;;9.11;90.22
5455;BME280;2750;49.050;9.250;2023-11-18T04:26:06;99661.28;;;9.06;89.77
5455;BME280;2750;49.050;9.250;2023-11-18T04:31:09;99669.84;;;9.08;90.43
5455;BME280;2750;49.050;9.250;2023-11-18T04:36:11;99680.53;;;8.96;91.25
5455;BME280;2750;49.050;9.250;2023-11-18T04:41:13;99680.69;;;8.90;90.95
5455;BME280;2750;49.050;9.250;2023-11-18T04:46:16;99675.13;;;8.72;91.99
5455;BME280;2750;49.050;9.250;2023-11-18T04:51:19;99676.44;;;8.88;91.62
5455;BME280;2750;49.050;9.250;2023-11-18T04:56:21;99658.94;;;8.97;91.11
5455;BME280;2750;49.050;9.250;2023-11-18T05:01:24;99668.19;;;9.07;91.12
5455;BME280;2750;49.050;9.250;2023-11-18T05:06:26;99671.72;;;9.03;90.85
5455;BME280;2750;49.050;9.250;2023-11-18T05:11:27;99660.97;;;9.19;91.00
5455;BME280;2750;49.050;9.250;2023-11-18T05:16:31;99681.69;;;9.19;90.21
5455;BME280;2750;49.050;9.250;2023-11-18T05:21:32;99671.97;;;8.94;89.63
5455;BME280;2750;49.050;9.250;2023-11-18T05:26:34;99676.56;;;8.83;89.44
5455;BME280;2750;49.050;9.250;2023-11-18T05:31:37;99678.75;;;8.98;90.23
5455;BME280;2750;49.050;9.250;2023-11-18T05:36:39;99673.91;;;9.19;90.46
5455;BME280;2750;49.050;9.250;2023-11-18T05:41:40;99672.28;;;9.15;90.53
5455;BME280;2750;49.050;9.250;2023-11-18T05:46:47;99665.81;;;9.31;90.38
5455;BME280;2750;49.050;9.250;2023-11-18T05:51:51;99672.09;;;9.22;90.00
5455;BME280;2750;49.050;9.250;2023-11-18T05:56:53;99652.72;;;9.04;89.48
5455;BME280;2750;49.050;9.250;2023-11-18T06:01:56;99660.88;;;9.22;90.14
5455;BME280;2750;49.050;9.250;2023-11-18T06:06:58;99653.66;;;9.34;90.26
5455;BME280;2750;49.050;9.250;2023-11-18T06:11:59;99638.81;;;9.39;90.37
5455;BME280;2750;49.050;9.250;2023-11-18T06:17:02;99638.97;;;9.35;89.93
5455;BME280;2750;49.050;9.250;2023-11-18T06:22:04;99649.78;;;9.49;89.74
5455;BME280;2750;49.050;9.250;2023-11-18T06:27:06;99658.09;;;9.60;89.63
5455;BME280;2750;49.050;9.250;2023-11-18T06:32:10;99656.38;;;9.59;89.30
5455;BME280;2750;49.050;9.250;2023-11-18T06:37:13;99673.44;;;9.66;89.44
5455;BME280;2750;49.050;9.250;2023-11-18T06:42:15;99684.75;;;9.64;90.40
5455;BME280;2750;49.050;9.250;2023-11-18T06:47:18;99685.09;;;9.51;90.21
5455;BME280;2750;49.050;9.250;2023-11-18T06:52:19;99680.19;;;9.42;90.82
5455;BME280;2750;49.050;9.250;2023-11-18T06:57:21;99672.88;;;9.56;91.44
5455;BME280;2750;49.050;9.250;2023-11-18T07:02:24;99670.47;;;9.80;90.39
5455;BME280;2750;49.050;9.250;2023-11-18T07:07:25;99669.28;;;9.91;89.88
5455;BME280;2750;49.050;9.250;2023-11-18T07:12:27;99683.78;;;9.97;90.11
5455;BME280;2750;49.050;9.250;2023-11-18T07:17:30;99689.81;;;9.97;89.75
5455;BME280;2750;49.050;9.250;2023-11-18T07:22:34;99686.25;;;10.31;88.75
5455;BME280;2750;49.050;9.250;2023-11-18T07:27:36;99691.16;;;10.66;88.47
5455;BME280;2750;49.050;9.250;2023-11-18T07:32:39;99696.56;;;10.86;87.35
5455;BME280;2750;49.050;9.250;2023-11-18T07:37:41;99693.34;;;10.80;87.07
5455;BME280;2750;49.050;9.250;2023-11-18T07:42:42;99692.25;;;10.85;86.55
5455;BME280;2750;49.050;9.250;2023-11-18T07:47:45;99661.03;;;10.88;85.76
5455;BME280;2750;49.050;9.250;2023-11-18T07:52:47;99673.75;;;10.96;85.15
5455;BME280;2750;49.050;9.250;2023-11-18T07:57:49;99671.09;;;10.97;85.40
5455;BME280;2750;49.050;9.250;2023-11-18T08:02:52;99678.94;;;10.70;86.34
5455;BME280;2750;49.050;9.250;2023-11-18T08:07:54;99694.84;;;11.12;85.16
5455;BME280;2750;49.050;9.250;2023-11-18T08:12:56;99673.22;;;11.36;84.12
5455;BME280;2750;49.050;9.250;2023-11-18T08:17:58;99678.69;;;11.53;83.91
5455;BME280;2750;49.050;9.250;2023-11-18T08:23:00;99673.81;;;11.44;83.06
5455;BME280;2750;49.050;9.250;2023-11-18T08:28:02;99660.13;;;11.62;83.08
5455;BME280;2750;49.050;9.250;2023-11-18T08:33:05;99670.66;;;12.06;82.03
5455;BME280;2750;49.050;9.250;2023-11-18T08:38:08;99675.06;;;12.49;81.35
5455;BME280;2750;49.050;9.250;2023-11-18T08:43:12;99658.59;;;12.26;80.57
5455;BME280;2750;49.050;9.250;2023-11-18T08:48:15;99679.50;;;11.78;81.03
5455;BME280;2750;49.050;9.250;2023-11-18T08:53:18;99677.91;;;11.97;81.92
5455;BME280;2750;49.050;9.250;2023-11-18T08:58:26;99655.22;;;11.55;82.64
5455;BME280;2750;49.050;9.250;2023-11-18T09:03:31;99663.91;;;11.78;82.08
5455;BME280;2750;49.050;9.250;2023-11-18T09:08:36;99669.28;;;11.49;82.66
5455;BME280;2750;49.050;9.250;2023-11-18T09:13:38;99668.22;;;11.79;82.70
5455;BME280;2750;49.050;9.250;2023-11-18T09:18:43;99667.53;;;12.19;81.73
5455;BME280;2750;49.050;9.250;2023-11-18T09:23:45;99657.44;;;11.88;81.63
5455;BME280;2750;49.050;9.250;2023-11-18T09:28:48;99659.44;;;12.49;80.91
5455;BME280;2750;49.050;9.250;2023-11-18T09:33:51;99657.69;;;13.31;78.52
5455;BME280;2750;49.050;9.250;2023-11-18T09:38:53;99653.25;;;13.72;77.10
5455;BME280;2750;49.050;9.250;2023-11-18T09:43:55;99656.19;;;13.46;77.99
5455;BME280;2750;49.050;9.250;2023-11-18T09:49:06;99650.75;;;13.89;75.74
5455;BME280;2750;49.050;9.250;2023-11-18T09:54:19;99660.88;;;13.96;76.68
5455;BME280;2750;49.050;9.250;2023-11-18T09:59:30;99655.09;;;14.08;76.64
5455;BME280;2750;49.050;9.250;2023-11-18T10:04:36;99645.22;;;14.14;75.45
5455;BME280;2750;49.050;9.250;2023-11-18T10:09:39;99654.50;;;14.03;76.65
5455;BME280;2750;49.050;9.250;2023-11-18T10:14:43;99649.84;;;13.91;76.87
5455;BME280;2750;49.050;9.250;2023-11-18T10:19:53;99642.97;;;14.25;75.58
5455;BME280;2750;49.050;9.250;2023-11-18T10:24:57;99633.91;;;14.32;74.96
5455;BME280;2750;49.050;9.250;2023-11-18T10:30:02;99644.06;;;14.03;75.14
5455;BME280;2750;49.050;9.250;2023-11-18T10:35:06;99643.25;;;14.19;74.50
5455;BME280;2750;49.050;9.250;2023-11-18T10:40:11;99631.69;;;13.69;75.86
5455;BME280;2750;49.050;9.250;2023-11-18T10:45:23;99634.78;;;13.58;75.88
5455;BME280;2750;49.050;9.250;2023-11-18T10:50:26;99627.94;;;13.56;76.58
5455;BME280;2750;49.050;9.250;2023-11-18T10:55:35;99636.50;;;13.78;77.93
5455;BME280;2750;49.050;9.250;2023-11-18T11:00:55;99626.38;;;14.08;76.19
5455;BME280;2750;49.050;9.250;2023-11-18T11:06:15;99634.56;;;14.19;76.04
5455;BME280;2750;49.050;9.250;2023-11-18T11:11:20;99619.63;;;14.41;75.48
5455;BME280;2750;49.050;9.250;2023-11-18T11:16:28;99620.84;;;14.68;74.74
5455;BME280;2750;49.050;9.250;2023-11-18T11:21:43;99608.91;;;14.46;75.10
5455;BME280;2750;49.050;9.250;2023-11-18T11:26:56;99584.44;;;14.82;74.61
5455;BME280;2750;49.050;9.250;2023-11-18T11:32:13;99597.97;;;14.73;74.60
5455;BME280;2750;49.050;9.250;2023-11-18T11:37:24;99581.19;;;14.43;75.05
5455;BME280;2750;49.050;9.250;2023-11-18T11:42:27;99593.25;;;14.10;76.28
5455;BME280;2750;49.050;9.250;2023-11-18T11:47:31;99570.88;;;14.04;75.30
5455;BME280;2750;49.050;9.250;2023-11-18T11:52:40;99562.09;;;14.24;75.17
5455;BME280;2750;49.050;9.250;2023-11-18T11:57:50;99567.75;;;14.15;75.32
5455;BME280;2750;49.050;9.250;2023-11-18T12:02:53;99552.41;;;14.09;75.04
5455;BME280;2750;49.050;9.250;2023-11-18T12:07:58;99533.88;;;13.96;75.16
5455;BME280;2750;49.050;9.250;2023-11-18T12:13:09;99536.81;;;13.71;76.56
5455;BME280;2750;49.050;9.250;2023-11-18T12:18:16;99498.50;;;13.36;77.57
5455;BME280;2750;49.050;9.250;2023-11-18T12:23:19;99500.88;;;13.59;77.37
5455;BME280;2750;49.050;9.250;2023-11-18T12:28:25;99479.19;;;13.40;77.34
5455;BME280;2750;49.050;9.250;2023-11-18T12:34:01;99481.38;;;13.30;76.74
5455;BME280;2750;49.050;9.250;2023-11-18T12:39:32;99479.75;;;13.28;76.88
5455;BME280;2750;49.050;9.250;2023-11-18T12:44:59;99483.72;;;13.18;77.67
5455;BME280;2750;49.050;9.250;2023-11-18T12:50:15;99474.47;;;13.29;77.69
5455;BME280;2750;49.050;9.250;2023-11-18T12:55:26;99470.16;;;13.47;76.19
5455;BME280;2750;49.050;9.250;2023-11-18T13:00:29;99460.78;;;12.87;78.32
5455;BME280;2750;49.050;9.250;2023-11-18T13:05:34;99451.19;;;12.87;77.58
5455;BME280;2750;49.050;9.250;2023-11-18T13:10:38;99455.38;;;12.91;77.18
5455;BME280;2750;49.050;9.250;2023-11-18T13:15:41;99471.78;;;13.12;77.12
5455;BME280;2750;49.050;9.250;2023-11-18T13:20:53;99433.91;;;12.66;78.10
5455;BME280;2750;49.050;9.250;2023-11-18T13:25:57;99437.75;;;12.58;78.25
5455;BME280;2750;49.050;9.250;2023-11-18T13:31:00;99437.16;;;12.32;78.96
5455;BME280;2750;49.050;9.250;2023-11-18T13:36:02;99408.25;;;12.38;79.45
5455;BME280;2750;49.050;9.250;2023-11-18T13:41:07;99397.78;;;12.20;78.97
5455;BME280;2750;49.050;9.250;2023-11-18T13:46:12;99399.38;;;12.63;78.37
5455;BME280;2750;49.050;9.250;2023-11-18T13:51:14;99383.44;;;12.50;78.49
5455;BME280;2750;49.050;9.250;2023-11-18T13:56:18;99379.59;;;12.20;79.18
5455;BME280;2750;49.050;9.250;2023-11-18T14:01:20;99379.56;;;12.40;78.84
5455;BME280;2750;49.050;9.250;2023-11-18T14:06:22;99376.69;;;12.07;80.18
5455;BME280;2750;49.050;9.250;2023-11-18T14:11:28;99383.75;;;12.24;80.36
5455;BME280;2750;49.050;9.250;2023-11-18T14:16:30;99380.06;;;12.09;79.20
5455;BME280;2750;49.050;9.250;2023-11-18T14:21:32;99365.88;;;12.16;79.54
5455;BME280;2750;49.050;9.250;2023-11-18T14:26:35;99366.91;;;12.12;79.73
5455;BME280;2750;49.050;9.250;2023-11-18T14:31:36;99354.88;;;12.10;79.53
5455;BME280;2750;49.050;9.250;2023-11-18T14:36:38;99361.03;;;12.27;79.46
5455;BME280;2750;49.050;9.250;2023-11-18T14:41:41;99363.22;;;12.18;79.91
5455;BME280;2750;49.050;9.250;2023-11-18T14:46:44;99355.63;;;12.32;79.34
5455;BME280;2750;49.050;9.250;2023-11-18T14:51:45;99342.53;;;12.15;78.67
5455;BME280;2750;49.050;9.250;2023-11-18T14:56:48;99328.41;;;12.00;79.93
5455;BME280;2750;49.050;9.250;2023-11-18T15:01:50;99334.78;;;12.13;79.02
5455;BME280;2750;49.050;9.250;2023-11-18T15:06:57;99318.19;;;12.16;78.74
5455;BME280;2750;49.050;9.250;2023-11-18T15:12:00;99310.16;;;11.81;79.74
5455;BME280;2750;49.050;9.250;2023-11-18T15:17:03;99316.88;;;11.87;79.72
5455;BME280;2750;49.050;9.250;2023-11-18T15:22:05;99321.22;;;11.86;80.08
5455;BME280;2750;49.050;9.250;2023-11-18T15:27:07;99324.28;;;11.54;81.25
5455;BME280;2750;49.050;9.250;2023-11-18T15:32:11;99323.97;;;11.83;81.14
5455;BME280;2750;49.050;9.250;2023-11-18T15:37:13;99333.72;;;11.78;82.20
5455;BME280;2750;49.050;9.250;2023-11-18T15:42:16;99325.31;;;11.92;81.37
5455;BME280;2750;49.050;9.250;2023-11-18T15:47:19;99316.91;;;12.06;80.42
5455;BME280;2750;49.050;9.250;2023-11-18T15:52:21;99324.34;;;11.94;81.03
5455;BME280;2750;49.050;9.250;2023-11-18T15:57:24;99320.19;;;11.90;81.17
5455;BME280;2750;49.050;9.250;2023-11-18T16:02:25;99316.53;;;11.94;80.92
5455;BME280;2750;49.050;9.250;2023-11-18T16:07:29;99309.00;;;11.88;80.83
5455;BME280;2750;49.050;9.250;2023-11-18T16:12:31;99300.69;;;11.80;81.64
5455;BME280;2750;49.050;9.250;2023-11-18T16:17:33;99293.00;;;11.77;81.76
5455;BME280;2750;49.050;9.250;2023-11-18T16:22:34;99272.59;;;11.48;83.38
5455;BME280;2750;49.050;9.250;2023-11-18T16:27:37;99274.41;;;11.26;85.22
5455;BME280;2750;49.050;9.250;2023-11-18T16:32:39;99264.16;;;11.23;86.01
5455;BME280;2750;49.050;9.250;2023-11-18T16:37:41;99260.94;;;11.16;85.94
5455;BME280;2750;49.050;9.250;2023-11-18T16:42:50;99242.72;;;11.18;86.12
5455;BME280;2750;49.050;9.250;2023-11-18T16:47:53;99229.44;;;11.03;85.95
5455;BME280;2750;49.050;9.250;2023-11-18T16:52:55;99213.88;;;11.03;86.06
5455;BME280;2750;49.050;9.250;2023-11-18T16:57:58;99197.69;;;10.97;85.84
5455;BME280;2750;49.050;9.250;2023-11-18T17:02:59;99209.41;;;11.07;86.03
5455;BME280;2750;49.050;9.250;2023-11-18T17:08:01;99218.53;;;11.16;86.45
5455;BME280;2750;49.050;9.250;2023-11-18T17:13:06;99197.00;;;11.14;85.43
5455;BME280;2750;49.050;9.250;2023-11-18T17:18:08;99186.84;;;10.87;85.47
5455;BME280;2750;49.050;9.250;2023-11-18T17:23:10;99175.03;;;10.80;85.17
5455;BME280;2750;49.050;9.250;2023-11-18T17:28:14;99181.66;;;10.87;84.47
5455;BME280;2750;49.050;9.250;2023-11-18T17:33:15;99173.28;;;11.01;84.13
5455;BME280;2750;49.050;9.250;2023-11-18T17:38:18;99152.47;;;11.02;83.71
5455;BME280;2750;49.050;9.250;2023-11-18T17:43:21;99124.03;;;10.99;83.45
5455;BME280;2750;49.050;9.250;2023-11-18T17:48:23;99111.94;;;10.98;84.17
5455;BME280;2750;49.050;9.250;2023-11-18T17:53:24;99123.38;;;10.94;83.69
5455;BME280;2750;49.050;9.250;2023-11-18T17:58:28;99135.97;;;10.83;84.22
5455;BME280;2750;49.050;9.250;2023-11-18T18:03:29;99155.00;;;10.62;85.58
5455;BME280;2750;49.050;9.250;2023-11-18T18:08:31;99158.41;;;10.64;86.69
5455;BME280;2750;49.050;9.250;2023-11-18T18:13:35;99148.38;;;10.55;87.09
5455;BME280;2750;49.050;9.250;2023-11-18T18:18:37;99132.44;;;10.64;86.84
5455;BME280;2750;49.050;9.250;2023-11-18T18:23:38;99125.41;;;10.46;87.31
5455;BME280;2750;49.050;9.250;2023-11-18T18:28:41;99112.41;;;10.26;89.04
5455;BME280;2750;49.050;9.250;2023-11-18T18:33:43;99089.06;;;10.26;89.28
5455;BME280;2750;49.050;9.250;2023-11-18T18:38:44;99067.06;;;10.13;89.17
5455;BME280;2750;49.050;9.250;2023-11-18T18:43:51;99041.41;;;10.06;89.68
5455;BME280;2750;49.050;9.250;2023-11-18T18:48:52;99038.41;;;9.95;90.37
5455;BME280;2750;49.050;9.250;2023-11-18T18:53:54;99047.63;;;10.02;89.84
5455;BME280;2750;49.050;9.250;2023-11-18T18:58:56;99039.25;;;9.96;89.53
5455;BME280;2750;49.050;9.250;2023-11-18T19:03:58;99031.66;;;9.91;90.74
5455;BME280;2750;49.050;9.250;2023-11-18T19:09:00;99018.28;;;9.80;90.78
5455;BME280;2750;49.050;9.250;2023-11-18T19:14:03;99003.81;;;9.75;91.34
5455;BME280;2750;49.050;9.250;2023-11-18T19:19:05;98996.28;;;9.69;91.25
5455;BME280;2750;49.050;9.250;2023-11-18T19:24:07;98974.19;;;9.60;91.99
5455;BME280;2750;49.050;9.250;2023-11-18T19:29:10;98940.19;;;9.68;91.82
5455;BME280;2750;49.050;9.250;2023-11-18T19:34:11;98945.88;;;9.77;91.37
5455;BME280;2750;49.050;9.250;2023-11-18T19:39:13;98953.69;;;9.76;91.89
5455;BME280;2750;49.050;9.250;2023-11-18T19:44:16;98943.78;;;9.85;91.68
5455;BME280;2750;49.050;9.250;2023-11-18T19:49:18;98926.03;;;9.76;91.30
5455;BME280;2750;49.050;9.250;2023-11-18T19:54:19;98943.31;;;9.76;92.36
5455;BME280;2750;49.050;9.250;2023-11-18T19:59:24;98912.31;;;9.94;90.94
5455;BME280;2750;49.050;9.250;2023-11-18T20:04:25;98893.41;;;9.92;90.86
5455;BME280;2750;49.050;9.250;2023-11-18T20:09:27;98881.84;;;9.79;91.59
5455;BME280;2750;49.050;9.250;2023-11-18T20:14:30;98942.91;;;10.06;90.86
5455;BME280;2750;49.050;9.250;2023-11-18T20:19:32;98963.38;;;10.34;90.15
5455;BME280;2750;49.050;9.250;2023-11-18T20:24:36;98934.34;;;10.65;89.54
5455;BME280;2750;49.050;9.250;2023-11-18T20:29:40;98919.13;;;10.76;88.39
5455;BME280;2750;49.050;9.250;2023-11-18T20:34:45;98881.59;;;10.46;88.77
5455;BME280;2750;49.050;9.250;2023-11-18T20:39:46;98873.72;;;10.47;90.10
5455;BME280;2750;49.050;9.250;2023-11-18T20:44:49;98868.09;;;10.38;89.64
5455;BME280;2750;49.050;9.250;2023-11-18T20:49:51;98884.03;;;10.49;89.65
5455;BME280;2750;49.050;9.250;2023-11-18T20:54:52;98880.66;;;10.66;88.94
5455;BME280;2750;49.050;9.250;2023-11-18T20:59:55;98887.00;;;10.79;88.82
5455;BME280;2750;49.050;9.250;2023-11-18T21:04:57;98878.50;;;10.75;89.35
5455;BME280;2750;49.050;9.250;2023-11-18T21:09:58;98851.66;;;10.76;89.00
5455;BME280;2750;49.050;9.250;2023-11-18T21:15:02;98885.16;;;10.99;88.85
5455;BME280;2750;49.050;9.250;2023-11-18T21:20:06;98877.97;;;11.23;87.57
5455;BME280;2750;49.050;9.250;2023-11-18T21:25:12;98871.44;;;11.50;86.55
5455;BME280;2750;49.050;9.250;2023-11-18T21:30:17;98873.00;;;11.19;88.21
5455;BME280;2750;49.050;9.250;2023-11-18T21:35:22;98868.00;;;11.50;87.16
5455;BME280;2750;49.050;9.250;2023-11-18T21:40:25;98869.31;;;11.59;86.93
5455;BME280;2750;49.050;9.250;2023-11-18T21:45:30;98864.94;;;11.59;86.12
5455;BME280;2750;49.050;9.250;2023-11-18T21:50:31;98848.94;;;11.15;87.28
5455;BME280;2750;49.050;9.250;2023-11-18T21:55:34;98846.03;;;11.21;87.39
5455;BME280;2750;49.050;9.250;2023-11-18T22:00:37;98848.25;;;11.29;88.02
5455;BME280;2750;49.050;9.250;2023-11-18T22:05:39;98842.16;;;11.30;86.39
5455;BME280;2750;49.050;9.250;2023-11-18T22:10:40;98827.53;;;11.27;87.26
5455;BME280;2750;49.050;9.250;2023-11-18T22:15:46;98813.78;;;11.08;88.26
5455;BME280;2750;49.050;9.250;2023-11-18T22:20:47;98814.94;;;11.20;88.15
5455;BME280;2750;49.050;9.250;2023-11-18T22:25:49;98809.34;;;11.10;88.17
5455;BME280;2750;49.050;9.250;2023-11-18T22:30:52;98791.72;;;10.99;89.24
5455;BME280;2750;49.050;9.250;2023-11-18T22:35:54;98803.06;;;10.97;89.52
5455;BME280;2750;49.050;9.250;2023-11-18T22:40:55;98803.25;;;11.11;88.88
5455;BME280;2750;49.050;9.250;2023-11-18T22:45:58;98804.00;;;11.13;89.38
5455;BME280;2750;49.050;9.250;2023-11-18T22:51:00;98786.06;;;11.09;89.77
5455;BME280;2750;49.050;9.250;2023-11-18T22:56:01;98783.94;;;11.17;90.06
5455;BME280;2750;49.050;9.250;2023-11-18T23:01:05;98782.13;;;11.19;90.47
5455;BME280;2750;49.050;9.250;2023-11-18T23:06:10;98763.00;;;11.20;90.85
5455;BME280;2750;49.050;9.250;2023-11-18T23:11:19;98761.94;;;11.07;90.93
5455;BME280;2750;49.050;9.250;2023-11-18T23:16:24;98764.75;;;11.02;91.75
5455;BME280;2750;49.050;9.250;2023-11-18T23:21:26;98757.81;;;11.02;91.61
5455;BME280;2750;49.050;9.250;2023-11-18T23:26:29;98735.34;;;10.84;92.35
5455;BME280;2750;49.050;9.250;2023-11-18T23:31:32;98706.19;;;11.14;92.65
5455;BME280;2750;49.050;9.250;2023-11-18T23:36:33;98704.81;;;11.07;92.55
5455;BME280;2750;49.050;9.250;2023-11-18T23:41:35;98706.31;;;10.93;93.33
5455;BME280;2750;49.050;9.250;2023-11-18T23:46:38;98709.00;;;10.92;93.82
5455;BME280;2750;49.050;9.250;2023-11-18T23:51:39;98708.09;;;11.10;93.76
5455;BME280;2750;49.050;9.250;2023-11-18T23:56:41;98717.78;;;11.24;94.28
